sensor_id;sensor_type;location;lat;lon;timestamp;P1;durP1;ratioP1;P2;durP2;ratioP2
68757;SDS011;55747;51.998;4.466;2022-09-09T00:02:18;11.52;;;7.97;;
68757;SDS011;55747;51.998;4.466;2022-09-09T00:04:48;11.60;;;8.20;;
68757;SDS011;55747;51.998;4.466;2022-09-09T00:07:41;13.98;;;8.55;;
68757;SDS011;55747;51.998;4.466;2022-09-09T00:15:26;13.50;;;9.27;;
68757;SDS011;55747;51.998;4.466;2022-09-09T00:18:11;15.48;;;9.30;;
68757;SDS011;55747;51.998;4.466;2022-09-09T00:20:45;16.85;;;9.60;;
68757;SDS011;55747;51.998;4.466;2022-09-09T00:23:29;15.88;;;9.82;;
68757;SDS011;55747;51.998;4.466;2022-09-09T00:25:59;18.02;;;10.48;;
68757;SDS011;55747;51.998;4.466;2022-09-09T00:28:33;18.98;;;10.13;;
68757;SDS011;55747;51.998;4.466;2022-09-09T00:31:11;18.75;;;10.23;;
68757;SDS011;55747;51.998;4.466;2022-09-09T00:33:38;18.10;;;10.27;;
68757;SDS011;55747;51.998;4.466;2022-09-09T00:36:05;21.25;;;11.30;;
68757;SDS011;55747;51.998;4.466;2022-09-09T00:38:48;17.88;;;11.30;;
68757;SDS011;55747;51.998;4.466;2022-09-09T00:41:26;20.00;;;11.50;;
68757;SDS011;55747;51.998;4.466;2022-09-09T00:44:00;19.80;;;11.45;;
68757;SDS011;55747;51.998;4.466;2022-09-09T00:50:05;19.70;;;12.20;;
68757;SDS011;55747;51.998;4.466;2022-09-09T00:57:57;25.30;;;12.80;;
68757;SDS011;55747;51.998;4.466;2022-09-09T01:00:34;20.90;;;12.05;;
68757;SDS011;55747;51.998;4.466;2022-09-09T01:03:18;20.45;;;11.88;;
68757;SDS011;55747;51.998;4.466;2022-09-09T01:11:07;19.75;;;10.60;;
68757;SDS011;55747;51.998;4.466;2022-09-09T01:13:40;16.90;;;10.27;;
68757;SDS011;55747;51.998;4.466;2022-09-09T01:16:11;17.23;;;9.63;;
68757;SDS011;55747;51.998;4.466;2022-09-09T01:18:43;17.58;;;9.80;;
68757;SDS011;55747;51.998;4.466;2022-09-09T01:24:31;13.77;;;8.50;;
68757;SDS011;55747;51.998;4.466;2022-09-09T01:27:27;18.23;;;8.15;;
68757;SDS011;55747;51.998;4.466;2022-09-09T01:29:53;10.82;;;6.80;;
68757;SDS011;55747;51.998;4.466;2022-09-09T01:32:38;16.88;;;6.93;;
68757;SDS011;55747;51.998;4.466;2022-09-09T01:37:51;14.57;;;5.95;;
68757;SDS011;55747;51.998;4.466;2022-09-09T01:40:17;15.27;;;5.87;;
68757;SDS011;55747;51.998;4.466;2022-09-09T01:42:42;9.40;;;5.05;;
68757;SDS011;55747;51.998;4.466;2022-09-09T01:45:07;11.90;;;5.65;;
68757;SDS011;55747;51.998;4.466;2022-09-09T01:47:34;11.50;;;5.05;;
68757;SDS011;55747;51.998;4.466;2022-09-09T01:50:00;9.00;;;4.60;;
68757;SDS011;55747;51.998;4.466;2022-09-09T01:52:27;9.57;;;4.47;;
68757;SDS011;55747;51.998;4.466;2022-09-09T01:54:53;10.77;;;4.75;;
68757;SDS011;55747;51.998;4.466;2022-09-09T01:57:21;10.02;;;4.85;;
68757;SDS011;55747;51.998;4.466;2022-09-09T02:00:06;15.50;;;5.22;;
68757;SDS011;55747;51.998;4.466;2022-09-09T02:08:10;12.27;;;3.83;;
68757;SDS011;55747;51.998;4.466;2022-09-09T02:10:44;9.13;;;3.67;;
68757;SDS011;55747;51.998;4.466;2022-09-09T02:13:19;10.45;;;3.50;;
68757;SDS011;55747;51.998;4.466;2022-09-09T02:15:52;8.68;;;3.80;;
68757;SDS011;55747;51.998;4.466;2022-09-09T02:18:27;7.35;;;3.13;;
68757;SDS011;55747;51.998;4.466;2022-09-09T02:20:55;9.77;;;3.33;;
68757;SDS011;55747;51.998;4.466;2022-09-09T02:23:22;8.27;;;3.08;;
68757;SDS011;55747;51.998;4.466;2022-09-09T02:25:48;7.93;;;2.97;;
68757;SDS011;55747;51.998;4.466;2022-09-09T02:28:16;8.20;;;2.78;;
68757;SDS011;55747;51.998;4.466;2022-09-09T02:30:46;5.80;;;2.95;;
68757;SDS011;55747;51.998;4.466;2022-09-09T02:33:20;8.55;;;3.20;;
68757;SDS011;55747;51.998;4.466;2022-09-09T02:35:50;6.88;;;2.85;;
68757;SDS011;55747;51.998;4.466;2022-09-09T02:38:16;7.05;;;3.15;;
68757;SDS011;55747;51.998;4.466;2022-09-09T02:40:42;6.95;;;2.83;;
68757;SDS011;55747;51.998;4.466;2022-09-09T02:43:07;8.45;;;3.20;;
68757;SDS011;55747;51.998;4.466;2022-09-09T02:45:45;7.50;;;3.40;;
68757;SDS011;55747;51.998;4.466;2022-09-09T02:49:11;6.82;;;3.45;;
68757;SDS011;55747;51.998;4.466;2022-09-09T02:56:55;10.30;;;3.70;;
68757;SDS011;55747;51.998;4.466;2022-09-09T02:59:26;8.18;;;3.88;;
68757;SDS011;55747;51.998;4.466;2022-09-09T03:01:52;11.38;;;4.00;;
68757;SDS011;55747;51.998;4.466;2022-09-09T03:04:18;10.07;;;4.28;;
68757;SDS011;55747;51.998;4.466;2022-09-09T03:06:43;8.27;;;4.40;;
68757;SDS011;55747;51.998;4.466;2022-09-09T03:09:09;10.10;;;4.70;;
68757;SDS011;55747;51.998;4.466;2022-09-09T03:11:35;12.27;;;4.65;;
68757;SDS011;55747;51.998;4.466;2022-09-09T03:14:01;9.85;;;4.65;;
68757;SDS011;55747;51.998;4.466;2022-09-09T03:16:26;13.05;;;4.65;;
68757;SDS011;55747;51.998;4.466;2022-09-09T03:18:52;11.03;;;4.53;;
68757;SDS011;55747;51.998;4.466;2022-09-09T03:21:17;10.43;;;4.63;;
68757;SDS011;55747;51.998;4.466;2022-09-09T03:23:43;8.13;;;3.97;;
68757;SDS011;55747;51.998;4.466;2022-09-09T03:26:09;10.75;;;3.80;;
68757;SDS011;55747;51.998;4.466;2022-09-09T03:28:35;9.00;;;3.92;;
68757;SDS011;55747;51.998;4.466;2022-09-09T03:31:01;10.10;;;3.63;;
68757;SDS011;55747;51.998;4.466;2022-09-09T03:33:28;11.90;;;3.50;;
68757;SDS011;55747;51.998;4.466;2022-09-09T03:35:54;7.88;;;3.40;;
68757;SDS011;55747;51.998;4.466;2022-09-09T03:38:22;6.30;;;2.97;;
68757;SDS011;55747;51.998;4.466;2022-09-09T03:40:51;6.97;;;3.22;;
68757;SDS011;55747;51.998;4.466;2022-09-09T03:43:29;8.15;;;3.22;;
68757;SDS011;55747;51.998;4.466;2022-09-09T03:45:54;9.85;;;2.90;;
68757;SDS011;55747;51.998;4.466;2022-09-09T03:48:23;5.97;;;2.58;;
68757;SDS011;55747;51.998;4.466;2022-09-09T03:50:50;7.00;;;2.55;;
68757;SDS011;55747;51.998;4.466;2022-09-09T03:53:17;6.65;;;2.80;;
68757;SDS011;55747;51.998;4.466;2022-09-09T03:55:48;8.10;;;2.88;;
68757;SDS011;55747;51.998;4.466;2022-09-09T03:58:16;9.00;;;2.92;;
68757;SDS011;55747;51.998;4.466;2022-09-09T04:03:21;7.55;;;3.15;;
68757;SDS011;55747;51.998;4.466;2022-09-09T04:05:48;10.73;;;3.00;;
68757;SDS011;55747;51.998;4.466;2022-09-09T04:08:14;8.30;;;2.85;;
68757;SDS011;55747;51.998;4.466;2022-09-09T04:10:39;7.25;;;3.13;;
68757;SDS011;55747;51.998;4.466;2022-09-09T04:13:05;7.93;;;3.10;;
68757;SDS011;55747;51.998;4.466;2022-09-09T04:15:31;12.90;;;3.37;;
68757;SDS011;55747;51.998;4.466;2022-09-09T04:17:57;8.48;;;3.00;;
68757;SDS011;55747;51.998;4.466;2022-09-09T04:20:23;7.03;;;3.20;;
68757;SDS011;55747;51.998;4.466;2022-09-09T04:22:49;7.75;;;3.05;;
68757;SDS011;55747;51.998;4.466;2022-09-09T04:25:14;7.80;;;2.97;;
68757;SDS011;55747;51.998;4.466;2022-09-09T04:27:40;6.50;;;3.17;;
68757;SDS011;55747;51.998;4.466;2022-09-09T04:30:05;10.10;;;3.50;;
68757;SDS011;55747;51.998;4.466;2022-09-09T04:32:32;7.78;;;3.25;;
68757;SDS011;55747;51.998;4.466;2022-09-09T04:34:58;7.47;;;2.95;;
68757;SDS011;55747;51.998;4.466;2022-09-09T04:37:23;7.68;;;3.13;;
68757;SDS011;55747;51.998;4.466;2022-09-09T04:39:49;12.00;;;2.97;;
68757;SDS011;55747;51.998;4.466;2022-09-09T04:42:15;8.93;;;3.33;;
68757;SDS011;55747;51.998;4.466;2022-09-09T04:44:42;8.45;;;3.33;;
68757;SDS011;55747;51.998;4.466;2022-09-09T04:47:08;9.88;;;3.00;;
68757;SDS011;55747;51.998;4.466;2022-09-09T04:49:34;11.55;;;3.30;;
68757;SDS011;55747;51.998;4.466;2022-09-09T04:52:00;9.02;;;2.90;;
68757;SDS011;55747;51.998;4.466;2022-09-09T04:54:26;10.15;;;3.10;;
68757;SDS011;55747;51.998;4.466;2022-09-09T04:56:53;8.82;;;2.80;;
68757;SDS011;55747;51.998;4.466;2022-09-09T04:59:19;10.27;;;3.92;;
68757;SDS011;55747;51.998;4.466;2022-09-09T05:01:45;10.85;;;3.60;;
68757;SDS011;55747;51.998;4.466;2022-09-09T05:04:10;10.03;;;3.73;;
68757;SDS011;55747;51.998;4.466;2022-09-09T05:06:36;10.05;;;3.75;;
68757;SDS011;55747;51.998;4.466;2022-09-09T05:09:01;9.63;;;3.75;;
68757;SDS011;55747;51.998;4.466;2022-09-09T05:11:27;13.05;;;3.90;;
68757;SDS011;55747;51.998;4.466;2022-09-09T05:13:54;11.68;;;3.95;;
68757;SDS011;55747;51.998;4.466;2022-09-09T05:16:21;12.32;;;4.40;;
68757;SDS011;55747;51.998;4.466;2022-09-09T05:18:47;10.48;;;4.00;;
68757;SDS011;55747;51.998;4.466;2022-09-09T05:21:14;9.15;;;3.47;;
68757;SDS011;55747;51.998;4.466;2022-09-09T05:23:40;10.15;;;3.95;;
68757;SDS011;55747;51.998;4.466;2022-09-09T05:26:06;9.75;;;3.80;;
68757;SDS011;55747;51.998;4.466;2022-09-09T05:28:34;8.95;;;3.50;;
68757;SDS011;55747;51.998;4.466;2022-09-09T05:31:01;12.15;;;3.50;;
68757;SDS011;55747;51.998;4.466;2022-09-09T05:33:33;19.05;;;4.25;;
68757;SDS011;55747;51.998;4.466;2022-09-09T05:36:00;11.77;;;3.35;;
68757;SDS011;55747;51.998;4.466;2022-09-09T05:38:31;10.57;;;3.42;;
68757;SDS011;55747;51.998;4.466;2022-09-09T05:40:58;10.40;;;3.58;;
68757;SDS011;55747;51.998;4.466;2022-09-09T05:43:27;12.07;;;3.83;;
68757;SDS011;55747;51.998;4.466;2022-09-09T05:46:04;11.40;;;3.33;;
68757;SDS011;55747;51.998;4.466;2022-09-09T05:48:31;10.20;;;3.60;;
68757;SDS011;55747;51.998;4.466;2022-09-09T05:50:59;10.27;;;2.92;;
68757;SDS011;55747;51.998;4.466;2022-09-09T05:53:25;11.77;;;3.30;;
68757;SDS011;55747;51.998;4.466;2022-09-09T05:55:58;7.72;;;2.50;;
68757;SDS011;55747;51.998;4.466;2022-09-09T05:58:24;9.55;;;2.83;;
68757;SDS011;55747;51.998;4.466;2022-09-09T06:00:50;8.15;;;2.50;;
68757;SDS011;55747;51.998;4.466;2022-09-09T06:03:15;12.67;;;2.73;;
68757;SDS011;55747;51.998;4.466;2022-09-09T06:05:41;11.38;;;2.78;;
68757;SDS011;55747;51.998;4.466;2022-09-09T06:08:07;9.77;;;2.67;;
68757;SDS011;55747;51.998;4.466;2022-09-09T06:10:32;11.57;;;3.08;;
68757;SDS011;55747;51.998;4.466;2022-09-09T06:12:59;10.68;;;3.33;;
68757;SDS011;55747;51.998;4.466;2022-09-09T06:15:24;10.32;;;2.95;;
68757;SDS011;55747;51.998;4.466;2022-09-09T06:17:53;11.18;;;3.15;;
68757;SDS011;55747;51.998;4.466;2022-09-09T06:20:20;12.43;;;3.63;;
68757;SDS011;55747;51.998;4.466;2022-09-09T06:22:46;14.35;;;3.08;;
68757;SDS011;55747;51.998;4.466;2022-09-09T06:25:13;12.43;;;3.05;;
68757;SDS011;55747;51.998;4.466;2022-09-09T06:27:39;9.60;;;3.22;;
68757;SDS011;55747;51.998;4.466;2022-09-09T06:30:05;7.20;;;3.05;;
68757;SDS011;55747;51.998;4.466;2022-09-09T06:32:32;10.60;;;3.28;;
68757;SDS011;55747;51.998;4.466;2022-09-09T06:35:01;8.20;;;2.78;;
68757;SDS011;55747;51.998;4.466;2022-09-09T06:37:27;17.25;;;3.65;;
68757;SDS011;55747;51.998;4.466;2022-09-09T06:39:52;12.47;;;3.47;;
68757;SDS011;55747;51.998;4.466;2022-09-09T06:42:19;12.40;;;3.50;;
68757;SDS011;55747;51.998;4.466;2022-09-09T06:44:44;13.47;;;3.23;;
68757;SDS011;55747;51.998;4.466;2022-09-09T06:47:10;10.60;;;3.10;;
68757;SDS011;55747;51.998;4.466;2022-09-09T06:49:35;12.60;;;3.65;;
68757;SDS011;55747;51.998;4.466;2022-09-09T06:52:01;8.05;;;3.30;;
68757;SDS011;55747;51.998;4.466;2022-09-09T06:54:26;9.60;;;3.80;;
68757;SDS011;55747;51.998;4.466;2022-09-09T06:56:51;11.47;;;4.30;;
68757;SDS011;55747;51.998;4.466;2022-09-09T06:59:17;16.60;;;3.90;;
68757;SDS011;55747;51.998;4.466;2022-09-09T07:01:42;10.82;;;4.10;;
68757;SDS011;55747;51.998;4.466;2022-09-09T07:04:16;12.32;;;4.38;;
68757;SDS011;55747;51.998;4.466;2022-09-09T07:06:43;12.48;;;4.72;;
68757;SDS011;55747;51.998;4.466;2022-09-09T07:09:11;14.23;;;4.22;;
68757;SDS011;55747;51.998;4.466;2022-09-09T07:11:39;15.27;;;4.07;;
68757;SDS011;55747;51.998;4.466;2022-09-09T07:14:07;11.68;;;4.07;;
68757;SDS011;55747;51.998;4.466;2022-09-09T07:16:32;12.70;;;4.18;;
68757;SDS011;55747;51.998;4.466;2022-09-09T07:19:02;9.32;;;4.35;;
68757;SDS011;55747;51.998;4.466;2022-09-09T07:21:28;11.80;;;4.43;;
68757;SDS011;55747;51.998;4.466;2022-09-09T07:23:54;11.27;;;4.15;;
68757;SDS011;55747;51.998;4.466;2022-09-09T07:26:20;15.18;;;4.68;;
68757;SDS011;55747;51.998;4.466;2022-09-09T07:28:53;10.63;;;4.60;;
68757;SDS011;55747;51.998;4.466;2022-09-09T07:31:22;12.73;;;4.97;;
68757;SDS011;55747;51.998;4.466;2022-09-09T07:33:50;8.48;;;4.38;;
68757;SDS011;55747;51.998;4.466;2022-09-09T07:38:49;14.75;;;5.32;;
68757;SDS011;55747;51.998;4.466;2022-09-09T07:41:21;12.10;;;4.85;;
68757;SDS011;55747;51.998;4.466;2022-09-09T07:44:08;12.60;;;4.75;;
68757;SDS011;55747;51.998;4.466;2022-09-09T07:46:36;9.68;;;4.53;;
68757;SDS011;55747;51.998;4.466;2022-09-09T07:49:01;8.70;;;4.30;;
68757;SDS011;55747;51.998;4.466;2022-09-09T07:51:29;17.83;;;5.03;;
68757;SDS011;55747;51.998;4.466;2022-09-09T07:53:57;9.10;;;3.95;;
68757;SDS011;55747;51.998;4.466;2022-09-09T07:56:24;13.35;;;4.63;;
68757;SDS011;55747;51.998;4.466;2022-09-09T07:58:52;12.57;;;4.32;;
68757;SDS011;55747;51.998;4.466;2022-09-09T08:01:25;12.32;;;3.90;;
68757;SDS011;55747;51.998;4.466;2022-09-09T08:03:59;11.23;;;4.05;;
68757;SDS011;55747;51.998;4.466;2022-09-09T08:06:27;9.13;;;3.95;;
68757;SDS011;55747;51.998;4.466;2022-09-09T08:08:54;13.77;;;3.80;;
68757;SDS011;55747;51.998;4.466;2022-09-09T08:11:20;8.73;;;3.80;;
68757;SDS011;55747;51.998;4.466;2022-09-09T08:13:48;12.23;;;3.65;;
68757;SDS011;55747;51.998;4.466;2022-09-09T08:16:22;11.07;;;3.92;;
68757;SDS011;55747;51.998;4.466;2022-09-09T08:18:49;11.60;;;3.80;;
68757;SDS011;55747;51.998;4.466;2022-09-09T08:21:26;12.15;;;3.55;;
68757;SDS011;55747;51.998;4.466;2022-09-09T08:23:53;9.35;;;3.75;;
68757;SDS011;55747;51.998;4.466;2022-09-09T08:26:20;12.55;;;4.00;;
68757;SDS011;55747;51.998;4.466;2022-09-09T08:28:52;9.65;;;3.20;;
68757;SDS011;55747;51.998;4.466;2022-09-09T08:33:53;14.73;;;4.03;;
68757;SDS011;55747;51.998;4.466;2022-09-09T08:36:19;11.27;;;3.20;;
68757;SDS011;55747;51.998;4.466;2022-09-09T08:38:50;10.52;;;3.90;;
68757;SDS011;55747;51.998;4.466;2022-09-09T08:58:19;10.55;;;3.65;;
68757;SDS011;55747;51.998;4.466;2022-09-09T09:03:30;11.38;;;4.10;;
68757;SDS011;55747;51.998;4.466;2022-09-09T09:06:06;10.18;;;3.63;;
68757;SDS011;55747;51.998;4.466;2022-09-09T09:09:07;10.98;;;3.67;;
68757;SDS011;55747;51.998;4.466;2022-09-09T09:11:44;8.48;;;3.72;;
68757;SDS011;55747;51.998;4.466;2022-09-09T09:14:25;9.90;;;3.58;;
68757;SDS011;55747;51.998;4.466;2022-09-09T09:16:54;11.73;;;4.28;;
68757;SDS011;55747;51.998;4.466;2022-09-09T09:19:22;7.03;;;2.97;;
68757;SDS011;55747;51.998;4.466;2022-09-09T09:21:57;6.47;;;3.03;;
68757;SDS011;55747;51.998;4.466;2022-09-09T09:24:41;8.95;;;4.15;;
68757;SDS011;55747;51.998;4.466;2022-09-09T09:27:12;11.18;;;3.50;;
68757;SDS011;55747;51.998;4.466;2022-09-09T09:29:40;13.00;;;3.35;;
68757;SDS011;55747;51.998;4.466;2022-09-09T09:32:09;11.70;;;3.40;;
68757;SDS011;55747;51.998;4.466;2022-09-09T09:34:39;9.60;;;3.65;;
68757;SDS011;55747;51.998;4.466;2022-09-09T09:37:12;12.43;;;3.97;;
68757;SDS011;55747;51.998;4.466;2022-09-09T09:39:45;7.15;;;3.70;;
68757;SDS011;55747;51.998;4.466;2022-09-09T09:42:11;10.35;;;4.13;;
68757;SDS011;55747;51.998;4.466;2022-09-09T09:44:39;13.43;;;4.43;;
68757;SDS011;55747;51.998;4.466;2022-09-09T09:47:11;9.18;;;4.57;;
68757;SDS011;55747;51.998;4.466;2022-09-09T09:49:38;7.88;;;4.07;;
68757;SDS011;55747;51.998;4.466;2022-09-09T09:52:05;10.30;;;4.47;;
68757;SDS011;55747;51.998;4.466;2022-09-09T09:54:38;13.40;;;4.07;;
68757;SDS011;55747;51.998;4.466;2022-09-09T09:57:16;12.68;;;4.32;;
68757;SDS011;55747;51.998;4.466;2022-09-09T09:59:42;14.52;;;4.38;;
68757;SDS011;55747;51.998;4.466;2022-09-09T10:04:41;11.15;;;4.60;;
68757;SDS011;55747;51.998;4.466;2022-09-09T10:07:17;11.60;;;4.77;;
68757;SDS011;55747;51.998;4.466;2022-09-09T10:09:44;12.48;;;5.07;;
68757;SDS011;55747;51.998;4.466;2022-09-09T10:22:50;10.95;;;5.22;;
68757;SDS011;55747;51.998;4.466;2022-09-09T10:33:47;9.63;;;3.90;;
68757;SDS011;55747;51.998;4.466;2022-09-09T10:36:20;11.65;;;3.80;;
68757;SDS011;55747;51.998;4.466;2022-09-09T10:39:04;7.90;;;3.33;;
68757;SDS011;55747;51.998;4.466;2022-09-09T10:52:33;7.50;;;2.85;;
68757;SDS011;55747;51.998;4.466;2022-09-09T10:55:17;9.70;;;2.75;;
68757;SDS011;55747;51.998;4.466;2022-09-09T10:57:51;6.65;;;2.22;;
68757;SDS011;55747;51.998;4.466;2022-09-09T11:00:36;7.25;;;2.65;;
68757;SDS011;55747;51.998;4.466;2022-09-09T11:03:05;6.03;;;2.45;;
68757;SDS011;55747;51.998;4.466;2022-09-09T11:08:19;6.03;;;2.33;;
68757;SDS011;55747;51.998;4.466;2022-09-09T11:14:01;8.90;;;2.22;;
68757;SDS011;55747;51.998;4.466;2022-09-09T11:16:33;4.78;;;2.10;;
68757;SDS011;55747;51.998;4.466;2022-09-09T11:19:19;9.48;;;2.28;;
68757;SDS011;55747;51.998;4.466;2022-09-09T11:21:55;7.35;;;2.72;;
68757;SDS011;55747;51.998;4.466;2022-09-09T11:29:54;6.68;;;2.92;;
68757;SDS011;55747;51.998;4.466;2022-09-09T11:32:54;10.40;;;3.03;;
68757;SDS011;55747;51.998;4.466;2022-09-09T11:40:35;5.35;;;2.55;;
68757;SDS011;55747;51.998;4.466;2022-09-09T11:43:01;9.43;;;3.25;;
68757;SDS011;55747;51.998;4.466;2022-09-09T11:45:37;7.72;;;3.50;;
68757;SDS011;55747;51.998;4.466;2022-09-09T11:48:04;8.48;;;4.05;;
68757;SDS011;55747;51.998;4.466;2022-09-09T11:50:36;10.25;;;4.63;;
68757;SDS011;55747;51.998;4.466;2022-09-09T11:53:15;11.32;;;4.90;;
68757;SDS011;55747;51.998;4.466;2022-09-09T11:55:48;10.60;;;5.40;;
68757;SDS011;55747;51.998;4.466;2022-09-09T11:58:26;10.00;;;6.00;;
68757;SDS011;55747;51.998;4.466;2022-09-09T12:08:41;14.60;;;7.82;;
68757;SDS011;55747;51.998;4.466;2022-09-09T12:11:09;12.80;;;7.43;;
68757;SDS011;55747;51.998;4.466;2022-09-09T12:13:58;14.32;;;7.53;;
68757;SDS011;55747;51.998;4.466;2022-09-09T12:16:34;11.25;;;6.28;;
68757;SDS011;55747;51.998;4.466;2022-09-09T12:19:24;14.07;;;6.80;;
68757;SDS011;55747;51.998;4.466;2022-09-09T12:22:04;8.68;;;5.60;;
68757;SDS011;55747;51.998;4.466;2022-09-09T12:24:58;10.32;;;5.07;;
68757;SDS011;55747;51.998;4.466;2022-09-09T12:27:35;11.43;;;5.10;;
68757;SDS011;55747;51.998;4.466;2022-09-09T12:30:10;7.00;;;4.78;;
68757;SDS011;55747;51.998;4.466;2022-09-09T12:32:39;10.50;;;4.60;;
68757;SDS011;55747;51.998;4.466;2022-09-09T12:35:13;8.52;;;4.10;;
68757;SDS011;55747;51.998;4.466;2022-09-09T12:37:50;8.02;;;4.28;;
68757;SDS011;55747;51.998;4.466;2022-09-09T12:40:23;10.85;;;4.85;;
68757;SDS011;55747;51.998;4.466;2022-09-09T12:42:50;9.38;;;4.45;;
68757;SDS011;55747;51.998;4.466;2022-09-09T12:45:17;6.65;;;4.28;;
68757;SDS011;55747;51.998;4.466;2022-09-09T12:47:51;6.40;;;4.28;;
68757;SDS011;55747;51.998;4.466;2022-09-09T12:50:29;12.38;;;4.43;;
68757;SDS011;55747;51.998;4.466;2022-09-09T12:53:11;8.60;;;4.55;;
68757;SDS011;55747;51.998;4.466;2022-09-09T12:55:51;6.40;;;4.20;;
68757;SDS011;55747;51.998;4.466;2022-09-09T12:58:28;8.52;;;3.55;;
68757;SDS011;55747;51.998;4.466;2022-09-09T13:00:58;8.85;;;3.55;;
68757;SDS011;55747;51.998;4.466;2022-09-09T13:03:24;7.93;;;3.72;;
68757;SDS011;55747;51.998;4.466;2022-09-09T13:05:50;6.35;;;2.92;;
68757;SDS011;55747;51.998;4.466;2022-09-09T13:08:18;6.43;;;3.10;;
68757;SDS011;55747;51.998;4.466;2022-09-09T13:13:29;3.25;;;2.00;;
68757;SDS011;55747;51.998;4.466;2022-09-09T13:16:00;4.50;;;1.80;;
68757;SDS011;55747;51.998;4.466;2022-09-09T13:18:30;4.28;;;1.30;;
68757;SDS011;55747;51.998;4.466;2022-09-09T13:20:58;4.95;;;1.70;;
68757;SDS011;55747;51.998;4.466;2022-09-09T13:23:31;4.95;;;1.75;;
68757;SDS011;55747;51.998;4.466;2022-09-09T13:26:00;4.93;;;1.70;;
68757;SDS011;55747;51.998;4.466;2022-09-09T13:28:29;4.55;;;1.65;;
68757;SDS011;55747;51.998;4.466;2022-09-09T13:30:56;4.47;;;1.80;;
68757;SDS011;55747;51.998;4.466;2022-09-09T13:33:38;4.63;;;1.58;;
68757;SDS011;55747;51.998;4.466;2022-09-09T13:36:05;6.25;;;2.13;;
68757;SDS011;55747;51.998;4.466;2022-09-09T13:38:35;6.20;;;1.60;;
68757;SDS011;55747;51.998;4.466;2022-09-09T13:41:42;6.90;;;1.83;;
68757;SDS011;55747;51.998;4.466;2022-09-09T13:44:22;5.55;;;1.98;;
68757;SDS011;55747;51.998;4.466;2022-09-09T13:47:00;9.43;;;2.85;;
68757;SDS011;55747;51.998;4.466;2022-09-09T13:49:27;6.15;;;2.55;;
68757;SDS011;55747;51.998;4.466;2022-09-09T13:52:03;6.18;;;2.03;;
68757;SDS011;55747;51.998;4.466;2022-09-09T13:54:39;6.57;;;2.35;;
68757;SDS011;55747;51.998;4.466;2022-09-09T13:57:05;5.82;;;2.53;;
68757;SDS011;55747;51.998;4.466;2022-09-09T13:59:39;11.68;;;2.70;;
68757;SDS011;55747;51.998;4.466;2022-09-09T14:02:05;6.47;;;2.97;;
68757;SDS011;55747;51.998;4.466;2022-09-09T14:04:31;6.90;;;2.95;;
68757;SDS011;55747;51.998;4.466;2022-09-09T14:06:57;5.30;;;2.83;;
68757;SDS011;55747;51.998;4.466;2022-09-09T14:09:23;7.00;;;2.47;;
68757;SDS011;55747;51.998;4.466;2022-09-09T14:11:48;6.10;;;2.20;;
68757;SDS011;55747;51.998;4.466;2022-09-09T14:14:13;6.93;;;1.80;;
68757;SDS011;55747;51.998;4.466;2022-09-09T14:16:39;4.13;;;1.70;;
68757;SDS011;55747;51.998;4.466;2022-09-09T14:19:04;3.07;;;1.60;;
68757;SDS011;55747;51.998;4.466;2022-09-09T14:21:29;6.72;;;1.50;;
68757;SDS011;55747;51.998;4.466;2022-09-09T14:23:55;3.93;;;1.30;;
68757;SDS011;55747;51.998;4.466;2022-09-09T14:26:22;4.68;;;1.58;;
68757;SDS011;55747;51.998;4.466;2022-09-09T14:28:49;4.80;;;1.45;;
68757;SDS011;55747;51.998;4.466;2022-09-09T14:31:15;6.57;;;1.60;;
68757;SDS011;55747;51.998;4.466;2022-09-09T14:33:42;4.40;;;1.60;;
68757;SDS011;55747;51.998;4.466;2022-09-09T14:36:08;5.80;;;1.42;;
68757;SDS011;55747;51.998;4.466;2022-09-09T14:38:35;4.40;;;1.15;;
68757;SDS011;55747;51.998;4.466;2022-09-09T14:41:15;4.03;;;1.20;;
68757;SDS011;55747;51.998;4.466;2022-09-09T14:43:41;9.07;;;1.40;;
68757;SDS011;55747;51.998;4.466;2022-09-09T14:46:08;7.93;;;1.48;;
68757;SDS011;55747;51.998;4.466;2022-09-09T14:48:35;4.30;;;1.40;;
68757;SDS011;55747;51.998;4.466;2022-09-09T14:51:08;5.50;;;1.30;;
68757;SDS011;55747;51.998;4.466;2022-09-09T14:53:34;6.85;;;1.48;;
68757;SDS011;55747;51.998;4.466;2022-09-09T14:56:06;4.63;;;1.75;;
68757;SDS011;55747;51.998;4.466;2022-09-09T14:58:42;4.95;;;1.38;;
68757;SDS011;55747;51.998;4.466;2022-09-09T15:01:08;3.80;;;1.20;;
68757;SDS011;55747;51.998;4.466;2022-09-09T15:03:39;7.03;;;1.15;;
68757;SDS011;55747;51.998;4.466;2022-09-09T15:06:15;5.68;;;1.75;;
68757;SDS011;55747;51.998;4.466;2022-09-09T15:08:41;3.58;;;1.10;;
68757;SDS011;55747;51.998;4.466;2022-09-09T15:11:09;6.60;;;1.20;;
68757;SDS011;55747;51.998;4.466;2022-09-09T15:13:36;7.38;;;1.63;;
68757;SDS011;55747;51.998;4.466;2022-09-09T15:16:13;5.18;;;1.40;;
68757;SDS011;55747;51.998;4.466;2022-09-09T15:18:39;5.90;;;1.52;;
68757;SDS011;55747;51.998;4.466;2022-09-09T15:21:07;4.75;;;1.40;;
68757;SDS011;55747;51.998;4.466;2022-09-09T15:23:34;4.80;;;1.60;;
68757;SDS011;55747;51.998;4.466;2022-09-09T15:26:00;9.15;;;2.17;;
68757;SDS011;55747;51.998;4.466;2022-09-09T15:28:25;8.50;;;1.50;;
68757;SDS011;55747;51.998;4.466;2022-09-09T15:30:51;5.53;;;1.30;;
68757;SDS011;55747;51.998;4.466;2022-09-09T15:33:21;7.23;;;1.77;;
68757;SDS011;55747;51.998;4.466;2022-09-09T15:35:47;6.40;;;1.80;;
68757;SDS011;55747;51.998;4.466;2022-09-09T15:38:13;7.85;;;2.10;;
68757;SDS011;55747;51.998;4.466;2022-09-09T15:40:41;8.82;;;2.45;;
68757;SDS011;55747;51.998;4.466;2022-09-09T15:43:06;8.90;;;2.50;;
68757;SDS011;55747;51.998;4.466;2022-09-09T15:45:34;7.10;;;2.90;;
68757;SDS011;55747;51.998;4.466;2022-09-09T15:48:00;7.53;;;3.65;;
68757;SDS011;55747;51.998;4.466;2022-09-09T15:50:26;9.57;;;4.43;;
68757;SDS011;55747;51.998;4.466;2022-09-09T15:52:51;11.82;;;4.68;;
68757;SDS011;55747;51.998;4.466;2022-09-09T15:55:18;12.77;;;5.30;;
68757;SDS011;55747;51.998;4.466;2022-09-09T15:57:45;16.90;;;5.70;;
68757;SDS011;55747;51.998;4.466;2022-09-09T16:00:11;13.75;;;5.90;;
68757;SDS011;55747;51.998;4.466;2022-09-09T16:02:38;11.18;;;5.90;;
68757;SDS011;55747;51.998;4.466;2022-09-09T16:05:04;11.32;;;6.88;;
68757;SDS011;55747;51.998;4.466;2022-09-09T16:07:30;14.77;;;6.72;;
68757;SDS011;55747;51.998;4.466;2022-09-09T16:09:55;11.83;;;6.80;;
68757;SDS011;55747;51.998;4.466;2022-09-09T16:12:21;12.55;;;7.28;;
68757;SDS011;55747;51.998;4.466;2022-09-09T16:14:46;13.20;;;7.23;;
68757;SDS011;55747;51.998;4.466;2022-09-09T16:17:11;10.13;;;6.50;;
68757;SDS011;55747;51.998;4.466;2022-09-09T16:19:37;11.93;;;6.95;;
68757;SDS011;55747;51.998;4.466;2022-09-09T16:22:08;9.32;;;6.55;;
68757;SDS011;55747;51.998;4.466;2022-09-09T16:24:33;11.18;;;6.82;;
68757;SDS011;55747;51.998;4.466;2022-09-09T16:26:58;11.57;;;7.67;;
68757;SDS011;55747;51.998;4.466;2022-09-09T16:29:24;13.15;;;8.80;;
68757;SDS011;55747;51.998;4.466;2022-09-09T16:31:52;16.17;;;7.93;;
68757;SDS011;55747;51.998;4.466;2022-09-09T16:34:18;12.70;;;8.25;;
68757;SDS011;55747;51.998;4.466;2022-09-09T16:36:44;12.27;;;7.53;;
68757;SDS011;55747;51.998;4.466;2022-09-09T16:39:15;11.05;;;7.28;;
68757;SDS011;55747;51.998;4.466;2022-09-09T16:41:47;12.10;;;6.43;;
68757;SDS011;55747;51.998;4.466;2022-09-09T16:44:15;11.27;;;5.18;;
68757;SDS011;55747;51.998;4.466;2022-09-09T16:46:43;9.65;;;4.65;;
68757;SDS011;55747;51.998;4.466;2022-09-09T16:49:10;7.50;;;3.90;;
68757;SDS011;55747;51.998;4.466;2022-09-09T16:51:38;6.68;;;3.85;;
68757;SDS011;55747;51.998;4.466;2022-09-09T16:54:06;5.18;;;3.30;;
68757;SDS011;55747;51.998;4.466;2022-09-09T16:56:33;6.38;;;3.70;;
68757;SDS011;55747;51.998;4.466;2022-09-09T16:59:02;5.60;;;3.30;;
68757;SDS011;55747;51.998;4.466;2022-09-09T17:01:30;5.43;;;3.50;;